Time;durP1;ratioP1;P1;durP2;ratioP2;P2;SDS_P1;SDS_P2;PMS_P1;PMS_P2;Temp;Humidity;BMP_temperature;BMP_pressure;BME280_temperature;BME280_humidity;BME280_pressure;Samples;Min_cycle;Max_cycle;Signal;HPM_P1;HPM_P2
2022/12/17 13:07:50;;;;;;;39.72;15.02;;;;;;;;;;4958095;28;20050;-65
2022/12/17 13:10:35;;;;;;;39.15;14.13;;;;;;;;;;4975754;28;20148;-66
2022/12/17 13:13:29;;;;;;;41.03;14.80;;;;;;;;;;4989936;28;20061;-65
2022/12/17 13:16:05;;;;;;;38.28;14.00;;;;;;;;;;4877018;28;20059;-64
2022/12/17 13:18:43;;;;;;;44.47;14.35;;;;;;;;;;4912794;28;20142;-65
2022/12/17 13:21:34;;;;;;;44.22;15.05;;;;;;;;;;4906247;28;20076;-66
2022/12/17 13:48:18;;;;;;;47.75;15.25;;;;;;;;;;5466601;22;16951503;-66
2022/12/17 13:50:56;;;;;;;47.97;15.75;;;;;;;;;;6188313;22;20016;-67
2022/12/17 13:53:26;;;;;;;37.78;14.38;;;;;;;;;;6196628;22;20032;-65
2022/12/17 13:55:54;;;;;;;43.90;14.88;;;;;;;;;;6145165;23;20111;-64
2022/12/17 13:58:22;;;;;;;42.70;15.20;;;;;;;;;;6176390;22;20030;-66
2022/12/17 14:00:49;;;;;;;44.42;15.43;;;;;;;;;;6205325;22;20019;-64
2022/12/17 14:03:21;;;;;;;40.35;14.40;;;;;;;;;;6193056;22;20213;-65
2022/12/17 14:05:48;;;;;;;38.78;14.55;;;;;;;;;;6208731;22;20031;-66
2022/12/17 14:08:19;;;;;;;41.10;14.80;;;;;;;;;;6227253;22;20088;-66
2022/12/17 14:10:49;;;;;;;43.03;14.50;;;;;;;;;;6223755;22;20028;-66
2022/12/17 14:13:15;;;;;;;43.67;14.15;;;;;;;;;;6217363;22;20344;-66
2022/12/17 14:15:46;;;;;;;45.28;15.55;;;;;;;;;;6224552;22;20027;-67
2022/12/17 14:39:34;;;;;;;56.98;23.17;;;;;;;;;;6162606;22;5027269;-68
2022/12/17 14:42:28;;;;;;;46.53;14.82;;;;;;;;;;5959467;23;20113;-66
2022/12/17 15:01:43;;;;;;;44.00;14.40;;;;;;;;;;4244815;27;24979238;-66
2022/12/17 15:04:10;;;;;;;40.63;13.98;;;;;;;;;;5087649;28;20048;-68
2022/12/17 15:06:36;;;;;;;42.53;14.20;;;;;;;;;;5063010;28;20067;-68
2022/12/17 15:09:04;;;;;;;42.17;14.77;;;;;;;;;;4983862;28;20060;-67
2022/12/17 15:11:38;;;;;;;38.67;14.20;;;;;;;;;;5053961;28;20051;-68
2022/12/17 15:14:05;;;;;;;39.40;13.75;;;;;;;;;;5066561;28;20052;-66
2022/12/17 15:16:32;;;;;;;41.78;14.20;;;;;;;;;;5022052;28;20063;-64
2022/12/17 15:19:02;;;;;;;41.28;15.63;;;;;;;;;;5081386;27;20070;-66
2022/12/17 15:21:31;;;;;;;41.25;14.95;;;;;;;;;;5072818;28;20101;-65
2022/12/17 15:24:06;;;;;;;52.00;16.63;;;;;;;;;;5066113;28;20212;-65
2022/12/17 15:26:38;;;;;;;44.38;14.48;;;;;;;;;;5063912;27;20794;-67
2022/12/17 15:29:07;;;;;;;45.28;14.93;;;;;;;;;;5081854;28;20055;-65
2022/12/17 15:31:35;;;;;;;44.55;15.00;;;;;;;;;;5050148;28;20074;-64
2022/12/17 15:34:03;;;;;;;39.08;14.60;;;;;;;;;;5059022;28;20051;-65
2022/12/17 15:36:30;;;;;;;37.05;13.60;;;;;;;;;;5058532;28;20055;-65
2022/12/17 15:38:57;;;;;;;38.65;13.98;;;;;;;;;;5059229;28;20070;-66
2022/12/17 15:44:07;;;;;;;40.15;13.73;;;;;;;;;;5079520;28;20055;-66
2022/12/17 15:46:34;;;;;;;38.08;12.75;;;;;;;;;;5070861;28;20125;-65
2022/12/17 15:49:01;;;;;;;41.28;13.27;;;;;;;;;;5065032;28;20060;-66
2022/12/17 15:51:29;;;;;;;43.65;13.60;;;;;;;;;;5073672;28;20154;-66
2022/12/17 15:53:55;;;;;;;43.20;14.07;;;;;;;;;;5094304;28;20133;-64
2022/12/17 15:56:23;;;;;;;42.25;13.65;;;;;;;;;;5072768;28;20058;-65
2022/12/17 15:58:50;;;;;;;38.97;14.93;;;;;;;;;;5074120;28;20051;-65
2022/12/17 16:01:17;;;;;;;40.15;13.38;;;;;;;;;;5082413;28;20059;-65
2022/12/17 16:03:43;;;;;;;41.75;15.68;;;;;;;;;;5063060;28;20062;-65
2022/12/17 16:06:10;;;;;;;38.47;13.57;;;;;;;;;;5091902;28;20056;-65
2022/12/17 16:08:38;;;;;;;39.15;14.00;;;;;;;;;;5086106;28;20052;-67
2022/12/17 16:11:06;;;;;;;44.75;13.85;;;;;;;;;;5070695;28;20051;-65
2022/12/17 16:13:32;;;;;;;37.67;13.73;;;;;;;;;;5054991;28;20058;-64
2022/12/17 16:15:59;;;;;;;43.80;13.82;;;;;;;;;;5065874;28;20051;-65
2022/12/17 16:18:25;;;;;;;39.72;13.25;;;;;;;;;;5068139;28;20097;-66
2022/12/17 16:20:52;;;;;;;37.33;12.48;;;;;;;;;;5076024;28;20051;-65
2022/12/17 16:23:19;;;;;;;38.75;12.80;;;;;;;;;;5042207;28;20052;-64
2022/12/17 16:25:54;;;;;;;39.83;12.88;;;;;;;;;;5033522;28;20059;-65
2022/12/17 16:28:21;;;;;;;41.97;13.93;;;;;;;;;;5059077;28;20056;-65
2022/12/17 16:30:57;;;;;;;47.90;15.07;;;;;;;;;;5054053;28;20062;-65
2022/12/17 16:33:23;;;;;;;44.75;13.75;;;;;;;;;;5057031;28;20174;-68
2022/12/17 16:35:50;;;;;;;38.13;14.00;;;;;;;;;;5061816;28;20053;-67
2022/12/17 16:38:17;;;;;;;37.45;13.52;;;;;;;;;;5046200;28;20116;-67
2022/12/17 16:40:44;;;;;;;41.60;14.63;;;;;;;;;;5037399;28;20060;-66
2022/12/17 16:43:11;;;;;;;41.25;13.75;;;;;;;;;;5041882;28;20051;-65
2022/12/17 16:45:46;;;;;;;34.17;13.17;;;;;;;;;;5036539;28;20059;-65
2022/12/17 16:48:12;;;;;;;38.95;12.88;;;;;;;;;;5071079;28;20337;-64
2022/12/17 16:50:39;;;;;;;38.72;12.63;;;;;;;;;;5045826;28;20055;-65
2022/12/17 16:53:05;;;;;;;35.30;12.45;;;;;;;;;;5064105;28;20048;-65
2022/12/17 16:55:32;;;;;;;37.95;13.40;;;;;;;;;;5029437;28;20051;-63
2022/12/17 16:57:58;;;;;;;39.10;12.85;;;;;;;;;;5047520;27;20055;-64
2022/12/17 17:00:26;;;;;;;38.92;13.70;;;;;;;;;;5043424;28;20059;-64
2022/12/17 17:02:53;;;;;;;38.03;12.68;;;;;;;;;;5057249;28;20064;-64
2022/12/17 17:05:19;;;;;;;32.35;11.45;;;;;;;;;;5072292;27;20055;-65
2022/12/17 17:07:46;;;;;;;41.15;12.90;;;;;;;;;;5100186;27;20055;-65
2022/12/17 17:10:12;;;;;;;37.92;12.85;;;;;;;;;;5106268;27;20158;-65
2022/12/17 17:12:39;;;;;;;35.30;12.10;;;;;;;;;;5080144;27;20062;-63
2022/12/17 17:15:08;;;;;;;36.67;13.18;;;;;;;;;;5085199;27;20182;-64
2022/12/17 17:17:36;;;;;;;37.38;13.80;;;;;;;;;;5098916;27;20127;-63
2022/12/17 17:20:02;;;;;;;39.33;13.77;;;;;;;;;;5087583;27;20066;-65
2022/12/17 17:22:29;;;;;;;43.90;13.05;;;;;;;;;;5070666;27;20065;-65
2022/12/17 17:24:56;;;;;;;38.13;13.45;;;;;;;;;;5094195;27;20046;-65
2022/12/17 17:27:22;;;;;;;34.65;12.73;;;;;;;;;;5098356;27;20047;-65
2022/12/17 17:29:48;;;;;;;40.00;13.27;;;;;;;;;;5100069;27;20055;-63
2022/12/17 17:32:15;;;;;;;37.42;12.43;;;;;;;;;;5102014;27;20256;-63
2022/12/17 17:34:43;;;;;;;40.03;13.55;;;;;;;;;;5082393;27;20054;-63
2022/12/17 17:37:09;;;;;;;37.30;12.73;;;;;;;;;;5079466;27;20078;-63
2022/12/17 17:39:36;;;;;;;33.97;12.85;;;;;;;;;;5102622;27;20054;-64
2022/12/17 17:42:02;;;;;;;40.58;12.60;;;;;;;;;;5095947;27;20279;-64
2022/12/17 17:44:29;;;;;;;35.15;12.98;;;;;;;;;;5087081;27;20055;-65
2022/12/17 17:46:55;;;;;;;34.13;13.07;;;;;;;;;;5066836;27;20215;-65
2022/12/17 17:49:22;;;;;;;30.77;12.70;;;;;;;;;;5075831;27;20172;-65
2022/12/17 17:51:50;;;;;;;32.85;12.98;;;;;;;;;;5105119;27;20055;-63
2022/12/17 17:54:16;;;;;;;30.33;12.00;;;;;;;;;;5092039;27;20072;-65
2022/12/17 17:56:43;;;;;;;40.53;14.13;;;;;;;;;;5078617;27;20074;-64
2022/12/17 17:59:10;;;;;;;33.78;11.70;;;;;;;;;;5078554;27;20057;-64
2022/12/17 18:01:38;;;;;;;32.35;12.52;;;;;;;;;;5111902;27;20063;-65
2022/12/17 18:04:05;;;;;;;35.08;13.48;;;;;;;;;;5101090;27;20059;-63
2022/12/17 18:06:32;;;;;;;40.55;13.00;;;;;;;;;;5087224;27;20055;-63
2022/12/17 18:09:00;;;;;;;40.42;13.85;;;;;;;;;;5068996;27;20059;-64
2022/12/17 18:11:28;;;;;;;36.33;13.17;;;;;;;;;;5077955;27;20051;-64
2022/12/17 18:13:56;;;;;;;44.22;14.73;;;;;;;;;;5076693;27;20245;-64
2022/12/17 18:16:23;;;;;;;38.20;13.20;;;;;;;;;;5102464;27;20047;-65
2022/12/17 18:18:50;;;;;;;45.28;15.05;;;;;;;;;;5052280;27;20047;-63
2022/12/17 18:21:17;;;;;;;29.67;11.35;;;;;;;;;;5084584;27;20058;-63
2022/12/17 18:23:44;;;;;;;38.90;14.20;;;;;;;;;;5098853;27;20047;-62
2022/12/17 18:26:13;;;;;;;39.03;13.90;;;;;;;;;;5101265;27;20054;-66
2022/12/17 18:28:40;;;;;;;35.05;12.80;;;;;;;;;;5076414;27;20050;-65
2022/12/17 18:31:07;;;;;;;36.25;13.70;;;;;;;;;;5097175;27;20051;-64
2022/12/17 18:33:34;;;;;;;41.67;13.83;;;;;;;;;;5101194;27;20221;-63
2022/12/17 18:36:01;;;;;;;41.53;14.05;;;;;;;;;;5101558;27;20170;-64
2022/12/17 18:38:27;;;;;;;40.05;13.13;;;;;;;;;;5083685;27;20124;-64
2022/12/17 18:40:54;;;;;;;41.78;14.18;;;;;;;;;;5073048;27;20043;-64
2022/12/17 18:43:24;;;;;;;36.63;12.57;;;;;;;;;;5101860;27;20051;-63
2022/12/17 18:45:50;;;;;;;42.70;14.25;;;;;;;;;;5097858;27;20065;-63
2022/12/17 18:48:17;;;;;;;35.50;13.13;;;;;;;;;;5082506;27;20055;-64
2022/12/17 18:50:43;;;;;;;45.63;14.55;;;;;;;;;;5093576;28;20070;-64
2022/12/17 18:53:10;;;;;;;35.20;13.20;;;;;;;;;;5101054;28;20051;-64
2022/12/17 18:55:39;;;;;;;40.88;14.57;;;;;;;;;;5082478;28;20055;-64
2022/12/17 18:58:06;;;;;;;43.25;15.30;;;;;;;;;;5070515;28;20499;-62
2022/12/17 19:00:34;;;;;;;37.90;14.20;;;;;;;;;;5079277;28;20067;-63
2022/12/17 19:03:03;;;;;;;37.60;13.60;;;;;;;;;;5076678;28;20051;-62
2022/12/17 19:05:29;;;;;;;36.42;13.80;;;;;;;;;;5093971;28;20071;-64
2022/12/17 19:07:56;;;;;;;41.95;14.50;;;;;;;;;;5083310;28;20067;-65
2022/12/17 19:10:22;;;;;;;42.85;13.82;;;;;;;;;;5089885;27;20063;-63
2022/12/17 19:12:50;;;;;;;37.75;13.38;;;;;;;;;;5074647;27;20043;-65
2022/12/17 19:15:16;;;;;;;35.92;12.65;;;;;;;;;;5101323;28;20151;-64
2022/12/17 19:17:44;;;;;;;39.22;14.25;;;;;;;;;;5078927;28;20108;-63
2022/12/17 19:20:11;;;;;;;41.20;13.23;;;;;;;;;;5082322;28;20050;-65
2022/12/17 19:22:37;;;;;;;36.80;14.35;;;;;;;;;;5079183;28;20300;-64
2022/12/17 19:25:04;;;;;;;36.88;13.95;;;;;;;;;;5079766;27;20939;-63
2022/12/17 19:27:31;;;;;;;44.38;14.00;;;;;;;;;;5079934;28;20082;-63
2022/12/17 19:29:58;;;;;;;38.00;13.68;;;;;;;;;;5083551;28;20059;-63
2022/12/17 19:32:24;;;;;;;39.08;14.68;;;;;;;;;;5081454;28;20052;-64
2022/12/17 19:34:52;;;;;;;41.42;13.85;;;;;;;;;;5093223;27;20081;-63
2022/12/17 19:37:19;;;;;;;45.70;14.60;;;;;;;;;;5066842;28;20066;-64
2022/12/17 19:39:45;;;;;;;39.83;13.20;;;;;;;;;;5079779;28;20058;-63
2022/12/17 19:42:23;;;;;;;36.55;14.05;;;;;;;;;;5072704;28;20055;-65
2022/12/17 19:44:49;;;;;;;35.50;12.30;;;;;;;;;;5093318;27;20104;-65
2022/12/17 19:47:16;;;;;;;39.70;13.73;;;;;;;;;;5079037;27;20178;-64
2022/12/17 19:49:43;;;;;;;41.55;14.32;;;;;;;;;;5100772;27;20058;-63
2022/12/17 19:52:10;;;;;;;36.00;13.10;;;;;;;;;;5101459;27;20051;-64
2022/12/17 19:54:37;;;;;;;41.25;13.93;;;;;;;;;;5073739;27;20150;-65
2022/12/17 19:57:04;;;;;;;43.45;14.27;;;;;;;;;;5072247;27;20154;-65
2022/12/17 19:59:30;;;;;;;43.17;14.63;;;;;;;;;;5104381;27;20100;-64
2022/12/17 20:01:57;;;;;;;39.03;13.70;;;;;;;;;;5074913;28;20066;-64
2022/12/17 20:04:23;;;;;;;40.10;13.38;;;;;;;;;;5077762;28;20216;-63
2022/12/17 20:06:50;;;;;;;41.03;13.85;;;;;;;;;;5072698;28;20056;-65
2022/12/17 20:09:18;;;;;;;38.00;14.10;;;;;;;;;;5060111;28;20043;-65
2022/12/17 20:11:44;;;;;;;38.08;12.88;;;;;;;;;;5081653;28;20044;-64
2022/12/17 20:14:12;;;;;;;38.88;13.20;;;;;;;;;;5080161;28;20047;-63
2022/12/17 20:16:39;;;;;;;38.92;12.88;;;;;;;;;;5076729;28;20063;-65
2022/12/17 20:19:06;;;;;;;43.10;13.15;;;;;;;;;;5091561;28;20047;-63
2022/12/17 20:21:33;;;;;;;37.40;13.20;;;;;;;;;;5079199;28;20064;-64
2022/12/17 20:23:59;;;;;;;36.63;13.38;;;;;;;;;;5093862;28;20063;-65
2022/12/17 20:26:27;;;;;;;36.28;13.73;;;;;;;;;;5096563;28;20121;-64
2022/12/17 20:28:54;;;;;;;39.08;14.13;;;;;;;;;;5059567;28;20074;-64
2022/12/17 20:31:21;;;;;;;40.10;14.07;;;;;;;;;;5096966;28;20059;-63
2022/12/17 20:33:47;;;;;;;40.25;13.15;;;;;;;;;;5083480;27;20094;-65
2022/12/17 20:36:15;;;;;;;41.25;13.60;;;;;;;;;;5080910;28;20052;-64
2022/12/17 20:38:42;;;;;;;39.65;13.63;;;;;;;;;;5060818;27;20054;-65
2022/12/17 20:41:09;;;;;;;43.80;14.02;;;;;;;;;;5082307;28;20051;-64
2022/12/17 20:43:37;;;;;;;39.15;14.32;;;;;;;;;;5082747;28;20078;-63
2022/12/17 20:46:04;;;;;;;40.75;13.23;;;;;;;;;;5077054;28;20055;-64
2022/12/17 20:48:31;;;;;;;39.00;13.52;;;;;;;;;;5047874;27;20113;-64
2022/12/17 20:50:58;;;;;;;43.53;13.40;;;;;;;;;;5073895;28;20964;-64
2022/12/17 20:53:24;;;;;;;37.53;12.93;;;;;;;;;;5059723;27;20054;-64
2022/12/17 20:55:59;;;;;;;36.60;12.90;;;;;;;;;;5067220;28;20051;-65
2022/12/17 20:58:25;;;;;;;40.65;13.32;;;;;;;;;;5048900;28;20067;-65
2022/12/17 21:01:02;;;;;;;35.45;12.23;;;;;;;;;;5095220;27;20051;-65
2022/12/17 21:03:31;;;;;;;39.95;12.90;;;;;;;;;;5086599;27;20155;-68
2022/12/17 21:05:57;;;;;;;;;;;;;;;;;;5072357;27;20131;-65
2022/12/17 21:08:23;;;;;;;34.65;11.98;;;;;;;;;;5084230;27;19932;-64
2022/12/17 21:10:55;;;;;;;40.63;13.52;;;;;;;;;;5076433;27;20055;-64
2022/12/17 21:13:30;;;;;;;42.90;13.82;;;;;;;;;;5092061;27;20055;-65
2022/12/17 21:15:59;;;;;;;37.60;12.57;;;;;;;;;;5099607;27;20054;-64
2022/12/17 21:18:26;;;;;;;33.60;12.20;;;;;;;;;;5085068;27;20054;-64
2022/12/17 21:20:57;;;;;;;38.67;12.88;;;;;;;;;;5089943;27;20053;-65
2022/12/17 21:25:59;;;;;;;37.75;12.93;;;;;;;;;;5057011;28;20052;-64
2022/12/17 21:28:26;;;;;;;34.08;13.32;;;;;;;;;;5039509;28;20083;-65
2022/12/17 21:30:53;;;;;;;38.08;13.70;;;;;;;;;;5043353;28;20075;-66
2022/12/17 21:33:25;;;;;;;36.40;12.95;;;;;;;;;;5028923;28;20942;-63
2022/12/17 21:36:02;;;;;;;43.00;13.02;;;;;;;;;;5026072;28;20080;-65
2022/12/17 21:38:29;;;;;;;34.38;12.43;;;;;;;;;;4979871;28;20136;-65
2022/12/17 21:41:06;;;;;;;36.67;11.68;;;;;;;;;;4991681;28;20040;-65
2022/12/17 21:43:56;;;;;;;40.42;12.45;;;;;;;;;;4997194;28;20052;-65
2022/12/17 21:46:27;;;;;;;35.28;12.15;;;;;;;;;;5002270;28;20053;-65
2022/12/17 21:49:01;;;;;;;33.60;11.70;;;;;;;;;;4910706;28;20057;-63
2022/12/17 21:54:28;;;;;;;36.08;12.15;;;;;;;;;;4945665;28;20128;-64
2022/12/17 21:57:05;;;;;;;36.95;13.95;;;;;;;;;;4930377;28;20109;-64
2022/12/17 21:59:43;;;;;;;35.83;12.15;;;;;;;;;;4909587;28;20155;-63
2022/12/17 22:02:18;;;;;;;35.13;10.95;;;;;;;;;;4941371;28;20054;-64
2022/12/17 22:20:55;;;;;;;34.60;8.63;;;;;;;;;;5078427;27;20481;-64
2022/12/17 22:23:22;;;;;;;38.05;11.57;;;;;;;;;;5060333;28;20056;-65
2022/12/17 22:25:48;;;;;;;41.67;13.05;;;;;;;;;;5005706;28;20041;-64
2022/12/17 22:28:15;;;;;;;29.38;11.48;;;;;;;;;;5018187;28;20045;-64
2022/12/17 22:33:27;;;;;;;34.90;12.23;;;;;;;;;;5025161;28;20087;-63
2022/12/17 22:35:58;;;;;;;34.58;11.77;;;;;;;;;;5003988;28;20143;-65
2022/12/17 22:38:27;;;;;;;36.65;12.00;;;;;;;;;;5009402;28;20074;-64
2022/12/17 22:40:53;;;;;;;;;;;;;;;;;;4987783;28;20060;-64
2022/12/17 22:43:31;;;;;;;33.17;10.45;;;;;;;;;;5015705;28;19955;-65
2022/12/17 22:46:01;;;;;;;36.50;12.90;;;;;;;;;;5029743;28;20057;-66
2022/12/17 22:48:28;;;;;;;39.95;12.90;;;;;;;;;;4989218;28;20067;-64
2022/12/17 22:50:56;;;;;;;34.60;11.52;;;;;;;;;;4964838;28;20047;-65
2022/12/17 22:53:23;;;;;;;41.20;11.57;;;;;;;;;;5026218;28;20049;-64
2022/12/17 22:55:50;;;;;;;41.72;13.35;;;;;;;;;;5015240;28;20103;-63
2022/12/17 22:58:22;;;;;;;30.20;10.88;;;;;;;;;;4998593;28;20058;-65
2022/12/17 23:07:31;;;;;;;33.80;11.15;;;;;;;;;;4893433;28;20061;-65
2022/12/17 23:10:02;;;;;;;35.05;11.70;;;;;;;;;;4959232;28;20053;-66
2022/12/17 23:15:19;;;;;;;34.30;12.13;;;;;;;;;;4945882;28;20050;-67
2022/12/17 23:17:52;;;;;;;35.60;11.57;;;;;;;;;;4939530;28;20058;-66
2022/12/17 23:20:19;;;;;;;37.65;12.55;;;;;;;;;;4929783;28;20045;-66
2022/12/17 23:22:55;;;;;;;35.10;12.40;;;;;;;;;;4973695;28;20237;-65
2022/12/17 23:25:25;;;;;;;39.25;12.98;;;;;;;;;;4950014;28;20051;-66
2022/12/17 23:27:52;;;;;;;34.67;11.73;;;;;;;;;;4904395;29;20057;-64
2022/12/17 23:33:23;;;;;;;36.13;11.65;;;;;;;;;;4959235;27;20445;-66
2022/12/17 23:35:53;;;;;;;44.42;13.10;;;;;;;;;;4981860;28;20062;-65
2022/12/17 23:38:24;;;;;;;32.85;11.23;;;;;;;;;;5010866;28;20058;-64
2022/12/17 23:41:14;;;;;;;33.13;11.60;;;;;;;;;;4927248;28;20150;-64
2022/12/17 23:43:50;;;;;;;32.70;12.00;;;;;;;;;;4935033;28;20058;-64
2022/12/17 23:46:24;;;;;;;40.53;12.02;;;;;;;;;;4960308;28;20053;-64
2022/12/17 23:48:59;;;;;;;31.40;11.57;;;;;;;;;;4943678;28;20047;-64
2022/12/17 23:51:36;;;;;;;34.63;12.07;;;;;;;;;;4869926;28;20394;-65
2022/12/17 23:54:27;;;;;;;37.55;11.98;;;;;;;;;;4823405;29;20050;-63
2022/12/17 23:56:56;;;;;;;36.15;11.65;;;;;;;;;;4830242;29;20121;-63
